Time;durP1;ratioP1;P1;durP2;ratioP2;P2;SDS_P1;SDS_P2;PMS_P1;PMS_P2;Temp;Humidity;BMP_temperature;BMP_pressure;BME280_temperature;BME280_humidity;BME280_pressure;Samples;Min_cycle;Max_cycle;Signal;HPM_P1;HPM_P2
2021/11/21 10:44:20;;;;;;;8.07;1.50;;;10.10;98.90;;;;;;5082886;27;20408;-81
2021/11/21 10:46:53;;;;;;;9.93;2.03;;;10.10;99.90;;;;;;5084866;28;20049;-81
2021/11/21 10:49:33;;;;;;;10.97;2.20;;;10.20;99.90;;;;;;5086289;28;20037;-83
2021/11/21 10:52:10;;;;;;;8.67;2.33;;;10.30;99.90;;;;;;5086836;28;20070;-85
2021/11/21 10:54:45;;;;;;;8.77;1.47;;;10.30;99.90;;;;;;5084771;28;20138;-87
2021/11/21 10:57:16;;;;;;;10.87;2.27;;;10.40;99.90;;;;;;5084699;28;20173;-83
2021/11/21 10:59:48;;;;;;;11.98;1.75;;;10.50;99.90;;;;;;5084976;28;20040;-80
2021/11/21 11:02:19;;;;;;;12.35;1.63;;;10.60;99.90;;;;;;5083149;28;20207;-85
2021/11/21 11:05:00;;;;;;;18.38;3.15;;;10.70;99.90;;;;;;5083431;28;20185;-81
2021/11/21 11:07:26;;;;;;;8.05;1.50;;;10.80;99.90;;;;;;5085479;28;20048;-79
2021/11/21 11:09:53;;;;;;;9.23;2.17;;;10.80;99.90;;;;;;5084170;28;20101;-82
2021/11/21 11:12:21;;;;;;;6.37;1.77;;;10.80;99.90;;;;;;5084585;28;20071;-75
2021/11/21 11:14:47;;;;;;;12.40;2.00;;;10.90;99.90;;;;;;5084826;28;20048;-76
2021/11/21 11:17:13;;;;;;;9.43;2.73;;;10.90;99.90;;;;;;5084079;28;20044;-78
2021/11/21 11:19:39;;;;;;;7.60;1.27;;;10.80;99.90;;;;;;5084056;28;20046;-80
2021/11/21 11:22:06;;;;;;;8.30;1.07;;;10.80;99.90;;;;;;5084148;28;20082;-79
2021/11/21 11:24:39;;;;;;;6.93;1.37;;;10.70;99.90;;;;;;5083926;28;20142;-75
2021/11/21 11:27:31;;;;;;;5.63;0.90;;;10.70;99.90;;;;;;5083796;28;20052;-74
2021/11/21 11:29:57;;;;;;;6.10;1.48;;;10.80;99.90;;;;;;5099910;28;20063;-74
2021/11/21 11:32:32;;;;;;;6.77;1.60;;;10.80;99.90;;;;;;5085326;28;20048;-75
2021/11/21 11:34:59;;;;;;;5.27;1.30;;;10.90;99.90;;;;;;5100764;28;20111;-71
2021/11/21 11:37:48;;;;;;;5.70;1.17;;;11.00;99.90;;;;;;5082454;28;20062;-76
2021/11/21 11:40:26;;;;;;;9.53;1.60;;;11.20;99.30;;;;;;5082757;28;20036;-72
2021/11/21 11:42:53;;;;;;;4.13;0.80;;;11.30;98.80;;;;;;5100453;28;20056;-72
2021/11/21 11:45:40;;;;;;;4.77;1.17;;;11.40;99.00;;;;;;5083524;28;20044;-73
2021/11/21 11:48:35;;;;;;;10.47;1.33;;;11.50;98.40;;;;;;5082790;28;20402;-74
2021/11/21 11:51:03;;;;;;;9.43;1.33;;;11.50;96.00;;;;;;5082461;28;20119;-73
2021/11/21 11:53:47;;;;;;;6.80;1.20;;;11.40;96.20;;;;;;5082445;28;20079;-72
2021/11/21 11:56:26;;;;;;;12.30;2.57;;;11.40;96.70;;;;;;5069976;28;20044;-76
2021/11/21 11:59:04;;;;;;;9.77;1.70;;;11.40;96.50;;;;;;5069471;28;20234;-79
2021/11/21 12:01:39;;;;;;;6.43;1.07;;;11.50;96.30;;;;;;5069244;28;20556;-78
2021/11/21 12:04:30;;;;;;;6.80;1.10;;;11.40;95.40;;;;;;5069103;28;20124;-76
2021/11/21 12:07:18;;;;;;;8.95;1.15;;;11.40;95.40;;;;;;5085480;28;20127;-74
2021/11/21 12:09:57;;;;;;;5.87;1.00;;;11.30;95.90;;;;;;5069893;28;20484;-79
2021/11/21 12:13:02;;;;;;;6.83;1.07;;;11.20;95.40;;;;;;5068640;28;20036;-77
2021/11/21 12:15:29;;;;;;;3.67;1.33;;;11.00;92.70;;;;;;5086244;28;20131;-71
2021/11/21 12:17:55;;;;;;;5.97;0.90;;;10.90;95.00;;;;;;5070848;28;20135;-72
2021/11/21 12:20:39;;;;;;;5.50;0.70;;;10.80;95.00;;;;;;5069289;28;20541;-72
2021/11/21 12:23:05;;;;;;;9.27;1.23;;;10.70;94.30;;;;;;5070882;28;20143;-76
2021/11/21 12:25:31;;;;;;;8.20;1.13;;;10.60;94.90;;;;;;5070949;28;20453;-76
2021/11/21 12:27:59;;;;;;;5.47;0.77;;;10.60;95.20;;;;;;5069544;28;20136;-74
2021/11/21 12:30:33;;;;;;;5.17;1.00;;;10.60;95.30;;;;;;5085789;28;20128;-73
2021/11/21 12:33:02;;;;;;;8.33;1.03;;;10.60;95.10;;;;;;5069881;28;20040;-71
2021/11/21 12:35:48;;;;;;;9.67;0.90;;;10.60;95.30;;;;;;5069062;28;20101;-77
2021/11/21 12:38:19;;;;;;;6.37;0.97;;;10.60;95.30;;;;;;5069591;28;20063;-78
2021/11/21 12:40:46;;;;;;;;;;;10.70;95.40;;;;;;5069108;28;20052;-77
2021/11/21 12:43:15;;;;;;;5.43;0.97;;;10.70;95.30;;;;;;5070004;28;19921;-73
2021/11/21 12:45:49;;;;;;;5.50;1.00;;;10.70;95.30;;;;;;5069620;28;20045;-72
2021/11/21 12:48:20;;;;;;;8.80;1.40;;;10.70;94.80;;;;;;5069526;28;20475;-72
2021/11/21 12:50:49;;;;;;;5.87;1.63;;;10.80;95.00;;;;;;5069189;28;20032;-78
2021/11/21 12:53:23;;;;;;;8.80;1.10;;;10.80;94.20;;;;;;5068967;28;20121;-75
2021/11/21 12:56:03;;;;;;;6.40;1.43;;;10.70;94.40;;;;;;5068600;28;20052;-76
2021/11/21 12:58:48;;;;;;;9.97;1.60;;;10.80;94.60;;;;;;5068487;28;20058;-73
2021/11/21 13:01:16;;;;;;;5.67;1.00;;;10.80;94.40;;;;;;5049169;28;20055;-72
2021/11/21 13:03:42;;;;;;;8.43;1.20;;;10.70;94.60;;;;;;5048574;28;20049;-71
2021/11/21 13:06:14;;;;;;;7.87;1.00;;;10.70;94.30;;;;;;5047970;28;20182;-71
2021/11/21 13:08:42;;;;;;;8.73;1.80;;;10.60;94.40;;;;;;5067769;28;20063;-72
2021/11/21 13:11:17;;;;;;;6.97;1.13;;;10.60;94.30;;;;;;5068661;28;20488;-79
2021/11/21 13:13:48;;;;;;;7.30;1.07;;;10.60;94.70;;;;;;5068332;28;20052;-79
2021/11/21 13:16:26;;;;;;;8.88;1.45;;;10.70;94.80;;;;;;5077659;28;20166;-81
2021/11/21 13:18:53;;;;;;;8.53;1.63;;;10.70;94.50;;;;;;5088763;28;20134;-78
2021/11/21 13:21:29;;;;;;;6.17;1.20;;;10.70;94.60;;;;;;5088583;28;20070;-81
2021/11/21 13:23:59;;;;;;;12.70;2.80;;;10.70;94.30;;;;;;5089237;28;20201;-80
2021/11/21 13:26:25;;;;;;;13.50;1.73;;;10.60;94.40;;;;;;5090011;28;20050;-79
2021/11/21 13:28:57;;;;;;;9.50;1.60;;;10.60;94.70;;;;;;5089694;28;20409;-80
2021/11/21 13:31:22;;;;;;;5.28;1.25;;;10.60;94.70;;;;;;5088348;28;20040;-80
2021/11/21 13:33:52;;;;;;;9.27;1.80;;;10.60;94.30;;;;;;5089861;28;20558;-82
2021/11/21 13:36:24;;;;;;;8.07;1.67;;;10.60;94.40;;;;;;5087668;28;20036;-75
